Time;durP1;ratioP1;P1;durP2;ratioP2;P2;SDS_P1;SDS_P2;PMS_P1;PMS_P2;Temp;Humidity;BMP_temperature;BMP_pressure;BME280_temperature;BME280_humidity;BME280_pressure;Samples;Min_cycle;Max_cycle;Signal;HPM_P1;HPM_P2
2022/11/07 00:01:01;;;;;;;3.87;3.67;;;20.20;93.10;;;;;;5092776;28;20484;-63
2022/11/07 00:03:27;;;;;;;4.00;3.90;;;20.20;93.10;;;;;;5092479;28;20442;-62
2022/11/07 00:05:54;;;;;;;3.40;3.30;;;20.20;93.20;;;;;;5093824;28;20874;-62
2022/11/07 00:08:30;;;;;;;3.50;3.40;;;20.20;93.20;;;;;;5093973;28;20445;-62
2022/11/07 00:10:57;;;;;;;3.73;3.63;;;20.20;93.20;;;;;;5093038;28;20465;-61
2022/11/07 00:13:26;;;;;;;3.20;3.10;;;20.20;93.30;;;;;;5092596;28;20845;-62
2022/11/07 00:15:53;;;;;;;3.73;3.63;;;20.20;93.40;;;;;;5093255;28;20553;-64
2022/11/07 00:18:21;;;;;;;3.33;3.23;;;20.20;93.40;;;;;;5093128;28;20994;-63
2022/11/07 00:20:48;;;;;;;3.67;3.57;;;20.20;93.50;;;;;;5092763;28;20481;-63
2022/11/07 00:23:15;;;;;;;3.67;3.53;;;20.10;93.50;;;;;;5092872;28;20565;-64
2022/11/07 00:25:42;;;;;;;3.53;3.43;;;20.20;93.60;;;;;;5092923;28;20450;-62
2022/11/07 00:28:09;;;;;;;3.27;3.17;;;20.10;93.60;;;;;;5092634;28;20967;-62
2022/11/07 00:30:35;;;;;;;3.30;3.20;;;20.10;94.00;;;;;;5092434;28;20445;-62
2022/11/07 00:33:02;;;;;;;3.57;3.47;;;20.10;93.70;;;;;;5092423;28;20476;-63
2022/11/07 00:35:31;;;;;;;3.93;3.83;;;20.10;93.80;;;;;;5092331;28;20511;-63
2022/11/07 00:37:57;;;;;;;3.53;3.40;;;20.10;93.80;;;;;;5092511;28;20957;-62
2022/11/07 00:40:24;;;;;;;3.53;3.43;;;20.10;93.80;;;;;;5092160;28;20533;-61
2022/11/07 00:42:51;;;;;;;3.43;3.33;;;20.10;93.90;;;;;;5092332;28;20474;-62
2022/11/07 00:45:18;;;;;;;3.37;3.27;;;20.10;94.20;;;;;;5092757;28;20438;-62
2022/11/07 00:47:45;;;;;;;3.73;3.63;;;20.10;94.00;;;;;;5092727;28;20811;-62
2022/11/07 00:50:11;;;;;;;3.27;3.17;;;20.10;94.00;;;;;;5092273;28;20541;-62
2022/11/07 00:52:40;;;;;;;3.90;3.80;;;20.10;94.00;;;;;;5091992;28;20472;-63
2022/11/07 00:55:07;;;;;;;3.30;3.20;;;20.10;94.00;;;;;;5092605;28;20449;-63
2022/11/07 00:57:34;;;;;;;3.50;3.33;;;20.10;94.10;;;;;;5092725;28;20470;-61
2022/11/07 01:00:01;;;;;;;2.80;2.80;;;20.10;94.10;;;;;;5092563;28;20450;-62
2022/11/07 01:02:28;;;;;;;4.13;4.00;;;20.10;94.10;;;;;;5092489;28;20486;-60
2022/11/07 01:05:12;;;;;;;3.37;3.20;;;20.10;94.20;;;;;;5092923;28;20525;-62
2022/11/07 01:07:40;;;;;;;3.00;2.90;;;20.10;94.30;;;;;;5092957;28;20442;-61
2022/11/07 01:10:08;;;;;;;3.10;3.10;;;20.10;94.30;;;;;;5092637;28;20442;-63
2022/11/07 01:12:35;;;;;;;3.50;3.40;;;20.10;94.40;;;;;;5092154;28;20505;-62
2022/11/07 01:15:02;;;;;;;3.30;3.20;;;20.00;94.40;;;;;;5092315;28;20525;-63
2022/11/07 01:17:29;;;;;;;3.33;3.23;;;20.10;94.50;;;;;;5092309;28;20481;-62
2022/11/07 01:19:56;;;;;;;3.30;3.20;;;20.10;94.50;;;;;;5092157;28;20529;-63
2022/11/07 01:22:23;;;;;;;3.43;3.23;;;20.10;94.60;;;;;;5091867;28;21020;-62
2022/11/07 01:24:51;;;;;;;2.77;2.77;;;20.00;94.60;;;;;;5092542;28;20443;-62
2022/11/07 01:27:18;;;;;;;3.30;3.20;;;20.10;94.60;;;;;;5092298;28;20445;-63
2022/11/07 01:29:45;;;;;;;3.40;3.30;;;20.00;94.60;;;;;;5091885;28;20920;-63
2022/11/07 01:32:11;;;;;;;3.20;3.20;;;20.00;94.60;;;;;;5094491;22;20582;-60
2022/11/07 01:34:38;;;;;;;3.27;3.17;;;20.10;94.70;;;;;;5051475;28;20439;-61
2022/11/07 01:37:05;;;;;;;3.63;3.53;;;20.10;94.70;;;;;;5051579;28;20448;-60
2022/11/07 01:39:32;;;;;;;3.30;3.20;;;20.00;94.70;;;;;;5051347;28;20806;-59
2022/11/07 01:42:00;;;;;;;3.70;3.60;;;20.00;94.70;;;;;;5051295;28;20484;-60
2022/11/07 01:44:51;;;;;;;4.00;3.90;;;20.00;94.80;;;;;;5051375;28;20878;-60
2022/11/07 01:47:18;;;;;;;3.17;3.10;;;20.00;94.80;;;;;;5051439;28;20444;-61
2022/11/07 01:49:44;;;;;;;3.23;3.13;;;20.00;94.80;;;;;;5045242;28;20540;-61
2022/11/07 01:52:17;;;;;;;3.20;3.20;;;20.00;94.80;;;;;;5031283;28;20495;-59
2022/11/07 01:54:48;;;;;;;3.40;3.30;;;20.00;94.90;;;;;;5031386;28;20527;-61
2022/11/07 01:57:21;;;;;;;3.07;3.00;;;20.00;94.90;;;;;;5031509;28;20456;-61
2022/11/07 01:59:49;;;;;;;3.03;2.93;;;20.00;94.90;;;;;;5036922;28;20531;-60
2022/11/07 02:02:16;;;;;;;3.10;3.10;;;20.00;94.90;;;;;;5051041;28;20671;-60
2022/11/07 02:04:44;;;;;;;3.37;3.27;;;19.90;94.90;;;;;;5051231;28;20522;-60
2022/11/07 02:07:15;;;;;;;3.83;3.73;;;19.90;95.00;;;;;;5051139;28;20819;-61
2022/11/07 02:09:42;;;;;;;3.17;3.07;;;20.00;95.00;;;;;;5051056;28;20560;-60
2022/11/07 02:12:10;;;;;;;3.17;3.07;;;19.90;95.00;;;;;;5050351;28;20471;-60
2022/11/07 02:14:38;;;;;;;3.20;3.10;;;19.90;95.00;;;;;;5050962;28;20440;-60
2022/11/07 02:17:05;;;;;;;3.07;3.07;;;19.90;95.00;;;;;;5051036;28;20462;-59
2022/11/07 02:19:35;;;;;;;3.40;3.30;;;19.90;95.10;;;;;;5044699;28;20547;-59
2022/11/07 02:22:11;;;;;;;3.53;3.43;;;19.90;95.10;;;;;;5030898;28;20489;-61
2022/11/07 02:24:40;;;;;;;4.03;3.63;;;19.90;95.20;;;;;;5031067;28;20441;-60
2022/11/07 02:27:12;;;;;;;3.67;3.40;;;19.90;95.20;;;;;;5034446;28;20447;-61
2022/11/07 02:29:42;;;;;;;3.63;3.53;;;19.90;95.20;;;;;;5040941;28;20448;-59
2022/11/07 02:32:12;;;;;;;3.30;3.20;;;19.90;95.20;;;;;;5054282;28;20558;-60
2022/11/07 02:34:39;;;;;;;3.10;3.00;;;19.90;95.20;;;;;;5054470;28;20868;-60
2022/11/07 02:37:13;;;;;;;3.23;3.13;;;19.90;95.20;;;;;;5054492;28;20451;-61
2022/11/07 02:39:41;;;;;;;3.20;3.10;;;19.90;95.30;;;;;;5044814;28;20451;-59
2022/11/07 02:42:09;;;;;;;3.17;3.07;;;19.90;95.30;;;;;;5034256;28;20520;-60
2022/11/07 02:44:36;;;;;;;3.97;3.10;;;19.90;95.30;;;;;;5034255;28;20821;-60
2022/11/07 02:47:03;;;;;;;3.07;2.90;;;19.90;95.30;;;;;;5035462;28;20476;-60
2022/11/07 02:49:30;;;;;;;2.97;2.87;;;19.90;95.30;;;;;;5034241;28;20788;-60
2022/11/07 02:51:56;;;;;;;3.20;3.10;;;19.90;95.40;;;;;;5033988;28;20463;-61
2022/11/07 02:54:23;;;;;;;3.13;3.03;;;19.90;95.40;;;;;;5034549;28;20819;-60
2022/11/07 02:56:51;;;;;;;3.30;3.20;;;19.90;95.40;;;;;;5054051;28;20444;-58
2022/11/07 02:59:18;;;;;;;3.13;3.03;;;19.90;95.40;;;;;;5054016;28;20532;-61
2022/11/07 03:01:45;;;;;;;4.33;3.10;;;19.90;95.40;;;;;;5053660;28;20508;-57
2022/11/07 03:04:12;;;;;;;3.00;2.90;;;19.90;95.40;;;;;;5053876;28;20945;-60
2022/11/07 03:06:39;;;;;;;3.73;3.63;;;19.90;95.40;;;;;;5034830;28;21016;-60
2022/11/07 03:09:05;;;;;;;3.17;2.90;;;19.90;95.40;;;;;;5033993;28;20451;-60
2022/11/07 03:11:32;;;;;;;2.97;2.87;;;19.90;95.40;;;;;;5033598;28;20461;-60
2022/11/07 03:14:00;;;;;;;2.80;2.80;;;19.90;95.40;;;;;;5033913;28;20441;-61
2022/11/07 03:16:27;;;;;;;2.63;2.63;;;19.80;95.40;;;;;;5033857;28;20536;-60
2022/11/07 03:18:54;;;;;;;2.90;2.80;;;19.90;95.50;;;;;;5051641;28;20444;-60
2022/11/07 03:21:21;;;;;;;2.90;2.80;;;19.90;95.50;;;;;;5053356;28;20999;-61
2022/11/07 03:23:47;;;;;;;4.13;3.00;;;19.80;95.40;;;;;;5053577;28;20444;-60
2022/11/07 03:26:14;;;;;;;3.30;3.30;;;19.80;95.40;;;;;;5053562;28;20452;-60
2022/11/07 03:28:41;;;;;;;3.17;3.07;;;19.80;95.50;;;;;;5053570;28;20440;-61
2022/11/07 03:31:09;;;;;;;2.90;2.90;;;19.80;95.50;;;;;;5035560;28;21023;-62
2022/11/07 03:33:36;;;;;;;3.47;3.37;;;19.80;95.50;;;;;;5034107;28;20860;-62
2022/11/07 03:36:03;;;;;;;2.60;2.60;;;19.80;95.50;;;;;;5034096;28;20441;-61
2022/11/07 03:38:30;;;;;;;3.20;3.10;;;19.80;95.50;;;;;;5043309;28;20551;-61
2022/11/07 03:40:57;;;;;;;3.43;3.33;;;19.80;95.50;;;;;;5053025;28;20447;-60
2022/11/07 03:43:24;;;;;;;2.90;2.80;;;19.80;95.50;;;;;;5053244;28;20486;-62
2022/11/07 03:45:50;;;;;;;3.20;3.10;;;19.80;95.60;;;;;;5053739;28;20535;-61
2022/11/07 03:48:19;;;;;;;2.60;2.60;;;19.80;95.90;;;;;;5054155;28;20448;-62
2022/11/07 03:50:45;;;;;;;3.03;2.93;;;19.80;95.60;;;;;;5052968;28;20452;-62
2022/11/07 03:53:12;;;;;;;3.23;3.10;;;19.80;95.60;;;;;;5053067;28;20468;-62
2022/11/07 03:55:40;;;;;;;3.10;3.10;;;19.80;95.70;;;;;;5053063;28;20450;-62
2022/11/07 03:58:07;;;;;;;3.37;3.30;;;19.80;95.70;;;;;;5052454;28;20444;-62
2022/11/07 04:00:34;;;;;;;3.00;3.00;;;19.80;95.70;;;;;;5052655;28;20510;-62
2022/11/07 04:03:03;;;;;;;3.73;3.63;;;19.80;95.70;;;;;;5052810;28;20786;-61
2022/11/07 04:05:31;;;;;;;3.17;3.07;;;19.80;95.70;;;;;;5052798;28;20444;-62
2022/11/07 04:07:58;;;;;;;2.70;2.70;;;19.80;95.70;;;;;;5034257;28;20452;-62
2022/11/07 04:10:24;;;;;;;3.50;3.40;;;19.80;95.70;;;;;;5032600;28;20452;-62
2022/11/07 04:18:21;;;;;;;3.20;3.17;;;19.80;95.70;;;;;;5039459;28;21007;-62
2022/11/07 04:20:49;;;;;;;3.30;3.20;;;19.80;95.80;;;;;;5052385;28;20448;-62
2022/11/07 04:23:16;;;;;;;3.27;3.17;;;19.80;95.80;;;;;;5052305;28;20495;-62
2022/11/07 04:28:27;;;;;;;3.07;3.07;;;19.80;95.80;;;;;;5052454;28;20786;-62
2022/11/07 04:30:54;;;;;;;2.93;2.90;;;19.80;95.90;;;;;;5043169;28;20453;-61
2022/11/07 04:33:20;;;;;;;3.13;3.03;;;19.80;95.90;;;;;;5042710;28;20476;-62
2022/11/07 04:35:49;;;;;;;3.20;3.10;;;19.80;95.90;;;;;;5052180;28;20440;-62
2022/11/07 04:38:15;;;;;;;2.90;2.80;;;19.80;95.90;;;;;;5052245;28;20531;-62
2022/11/07 04:40:42;;;;;;;3.53;3.30;;;19.80;95.90;;;;;;5051939;28;20447;-61
2022/11/07 04:43:09;;;;;;;2.90;2.80;;;19.80;95.90;;;;;;5040251;28;20487;-62
2022/11/07 04:45:36;;;;;;;3.30;3.20;;;19.80;95.90;;;;;;5032134;28;20540;-62
2022/11/07 04:48:04;;;;;;;3.10;2.90;;;19.70;95.90;;;;;;5031754;28;20441;-62
2022/11/07 04:50:30;;;;;;;3.40;3.30;;;19.70;95.80;;;;;;5031852;28;20488;-62
2022/11/07 04:52:59;;;;;;;3.17;3.07;;;19.80;95.90;;;;;;5032001;28;20497;-62
2022/11/07 04:55:29;;;;;;;2.97;2.87;;;19.70;95.80;;;;;;5032947;28;20445;-61
2022/11/07 04:57:56;;;;;;;3.10;3.00;;;19.80;95.90;;;;;;5032043;28;20459;-62
2022/11/07 05:00:23;;;;;;;3.33;3.23;;;19.80;96.00;;;;;;5031721;28;20444;-62
2022/11/07 05:02:50;;;;;;;3.50;3.30;;;19.80;96.20;;;;;;5031658;28;20572;-62
2022/11/07 05:05:18;;;;;;;3.10;3.07;;;19.80;96.50;;;;;;5031876;28;20483;-62
2022/11/07 05:07:45;;;;;;;3.57;3.47;;;19.70;96.20;;;;;;5050336;28;20589;-61
2022/11/07 05:10:18;;;;;;;3.03;3.03;;;19.80;96.20;;;;;;5051507;28;20440;-62
2022/11/07 05:12:45;;;;;;;2.83;2.73;;;19.80;96.30;;;;;;5051657;28;20456;-62
2022/11/07 05:15:12;;;;;;;3.73;3.43;;;19.80;96.30;;;;;;5051651;28;20447;-62
2022/11/07 05:17:39;;;;;;;3.80;3.70;;;19.70;96.50;;;;;;5043166;28;20475;-62
2022/11/07 05:20:07;;;;;;;3.33;3.23;;;19.70;96.50;;;;;;5031561;28;20444;-62
2022/11/07 05:25:20;;;;;;;3.73;3.63;;;19.70;96.60;;;;;;5033878;28;20813;-62
2022/11/07 05:27:46;;;;;;;3.40;3.30;;;19.70;96.60;;;;;;5051528;28;20444;-61
2022/11/07 05:30:13;;;;;;;3.00;2.90;;;19.70;96.90;;;;;;5051471;28;20527;-61
2022/11/07 05:32:40;;;;;;;3.87;3.50;;;19.70;96.60;;;;;;5051321;28;20468;-62
2022/11/07 05:35:08;;;;;;;4.73;4.23;;;19.70;96.40;;;;;;5050531;28;20876;-62
2022/11/07 05:37:34;;;;;;;8.27;5.00;;;19.80;96.30;;;;;;5031684;28;20528;-60
2022/11/07 05:40:01;;;;;;;14.30;5.00;;;19.70;96.50;;;;;;5031256;28;20451;-60
2022/11/07 05:42:29;;;;;;;4.53;4.13;;;19.80;97.60;;;;;;5037236;28;20485;-61
2022/11/07 05:44:56;;;;;;;7.37;4.70;;;19.80;97.80;;;;;;5031602;28;20459;-62
2022/11/07 05:47:23;;;;;;;7.20;4.80;;;19.80;98.00;;;;;;5031416;28;20818;-63
2022/11/07 05:49:50;;;;;;;6.90;4.27;;;19.90;98.10;;;;;;5031300;28;20445;-62
2022/11/07 05:52:16;;;;;;;8.17;4.47;;;19.90;98.40;;;;;;5031208;28;20479;-62
2022/11/07 05:54:43;;;;;;;5.23;4.93;;;19.90;97.90;;;;;;5031317;28;20447;-63
2022/11/07 05:57:10;;;;;;;5.67;4.30;;;19.90;97.80;;;;;;5031512;28;20806;-60
2022/11/07 05:59:38;;;;;;;6.83;4.63;;;20.00;97.70;;;;;;5031147;28;20527;-62
2022/11/07 06:02:05;;;;;;;6.20;4.60;;;20.00;97.50;;;;;;5034784;28;20491;-62
2022/11/07 06:04:32;;;;;;;4.43;4.13;;;20.00;97.30;;;;;;5035313;28;20448;-62
2022/11/07 06:06:59;;;;;;;8.20;5.40;;;20.00;97.10;;;;;;5035069;28;20451;-61
2022/11/07 06:09:25;;;;;;;6.27;5.27;;;20.00;97.00;;;;;;5035131;28;20528;-62
2022/11/07 06:11:52;;;;;;;4.10;3.90;;;20.00;96.90;;;;;;5034697;28;20992;-62
2022/11/07 06:14:19;;;;;;;8.50;4.57;;;20.00;96.70;;;;;;5034969;28;20447;-62
2022/11/07 06:16:47;;;;;;;4.70;4.27;;;20.00;96.60;;;;;;5035026;28;20448;-62
2022/11/07 06:19:14;;;;;;;8.10;4.70;;;20.00;96.50;;;;;;5034881;28;20445;-61
2022/11/07 06:21:41;;;;;;;6.90;5.00;;;20.00;96.40;;;;;;5034540;28;20465;-62
2022/11/07 06:24:10;;;;;;;6.10;5.60;;;20.00;96.30;;;;;;5034641;28;20490;-62
2022/11/07 06:26:36;;;;;;;4.80;4.50;;;20.00;96.20;;;;;;5034803;28;20884;-62
2022/11/07 06:29:03;;;;;;;5.03;4.27;;;20.00;96.10;;;;;;5034556;28;20445;-61
2022/11/07 06:31:30;;;;;;;4.67;4.27;;;20.00;96.00;;;;;;5034239;28;20503;-63
2022/11/07 06:33:58;;;;;;;8.17;5.40;;;20.00;95.90;;;;;;5034548;28;20445;-62
2022/11/07 06:36:25;;;;;;;9.80;5.17;;;20.00;95.90;;;;;;5034553;28;20808;-61
2022/11/07 06:38:53;;;;;;;4.57;4.33;;;20.00;95.80;;;;;;5034494;28;20451;-61
2022/11/07 06:41:20;;;;;;;5.07;4.43;;;20.00;95.70;;;;;;5034089;28;20460;-63
2022/11/07 06:43:47;;;;;;;5.53;4.50;;;20.00;95.60;;;;;;5034402;28;20823;-61
2022/11/07 06:46:16;;;;;;;5.13;4.60;;;20.00;95.60;;;;;;5034375;28;20930;-61
2022/11/07 06:48:43;;;;;;;3.60;3.40;;;20.00;95.50;;;;;;5034386;28;20445;-62
2022/11/07 06:51:11;;;;;;;6.00;5.40;;;20.00;95.50;;;;;;5033984;28;20914;-61
2022/11/07 06:53:38;;;;;;;4.63;4.40;;;20.00;95.40;;;;;;5034265;28;20463;-61
2022/11/07 06:56:07;;;;;;;5.13;4.60;;;20.00;95.40;;;;;;5034139;28;20445;-61
2022/11/07 06:58:34;;;;;;;4.67;4.27;;;20.00;95.30;;;;;;5034086;28;20533;-62
2022/11/07 07:01:01;;;;;;;4.57;4.27;;;20.00;95.30;;;;;;5033796;28;20449;-61
2022/11/07 07:03:29;;;;;;;4.97;4.60;;;20.00;95.30;;;;;;5033821;28;20535;-62
2022/11/07 07:05:59;;;;;;;4.50;4.13;;;20.00;95.20;;;;;;5033950;28;20929;-61
2022/11/07 07:08:28;;;;;;;9.33;5.17;;;20.00;95.20;;;;;;5034000;28;20524;-62
2022/11/07 07:10:55;;;;;;;4.83;4.43;;;20.00;95.10;;;;;;5033420;28;20535;-62
2022/11/07 07:13:21;;;;;;;4.23;3.93;;;20.00;95.10;;;;;;5033852;28;20540;-61
2022/11/07 07:15:54;;;;;;;5.40;4.30;;;20.00;95.10;;;;;;5033855;28;20855;-63
2022/11/07 07:18:22;;;;;;;4.97;4.67;;;20.00;95.00;;;;;;5033708;28;20445;-62
2022/11/07 07:20:49;;;;;;;7.00;4.90;;;20.00;95.00;;;;;;5033538;28;20527;-63
2022/11/07 07:23:17;;;;;;;5.63;5.37;;;20.10;95.00;;;;;;5033481;28;20588;-62
2022/11/07 07:25:45;;;;;;;3.53;3.43;;;20.10;95.00;;;;;;5033600;28;20451;-61
2022/11/07 07:28:12;;;;;;;4.30;3.90;;;20.10;94.90;;;;;;5033710;28;20437;-61
2022/11/07 07:30:39;;;;;;;4.20;4.00;;;20.10;94.90;;;;;;5033333;28;20532;-60
2022/11/07 07:33:06;;;;;;;5.40;5.10;;;20.10;94.90;;;;;;5073781;22;20598;-61
2022/11/07 07:35:33;;;;;;;5.40;5.00;;;20.10;94.80;;;;;;5054722;28;20432;-62
2022/11/07 07:38:00;;;;;;;4.23;4.07;;;20.10;94.70;;;;;;5070991;28;20448;-62
2022/11/07 07:40:27;;;;;;;4.67;4.37;;;20.10;94.70;;;;;;5068137;28;20448;-61
2022/11/07 07:42:55;;;;;;;4.87;4.43;;;20.10;94.60;;;;;;5064728;28;20515;-62
2022/11/07 07:45:22;;;;;;;4.50;4.30;;;20.10;94.90;;;;;;5063437;28;20508;-63
2022/11/07 07:47:49;;;;;;;4.17;3.87;;;20.10;94.50;;;;;;5058183;28;20887;-64
2022/11/07 07:50:15;;;;;;;4.50;4.30;;;20.10;94.40;;;;;;5057132;28;20483;-62
2022/11/07 07:52:42;;;;;;;3.83;3.70;;;20.10;94.40;;;;;;5059300;28;20462;-63
2022/11/07 07:55:10;;;;;;;3.90;3.80;;;20.10;94.40;;;;;;5063391;28;20467;-63
2022/11/07 07:57:41;;;;;;;5.07;4.67;;;20.10;94.30;;;;;;5063523;28;20455;-63
2022/11/07 08:00:11;;;;;;;3.67;3.57;;;20.10;94.30;;;;;;5062733;28;20480;-62
2022/11/07 08:02:38;;;;;;;4.53;4.40;;;20.10;94.20;;;;;;5061473;28;20515;-62
2022/11/07 08:05:06;;;;;;;4.00;3.80;;;20.10;94.20;;;;;;5057644;28;20444;-63
2022/11/07 08:07:33;;;;;;;5.77;4.10;;;20.10;94.10;;;;;;5055161;28;20490;-62
2022/11/07 08:10:00;;;;;;;4.63;4.23;;;20.10;94.10;;;;;;5055205;28;20443;-62
2022/11/07 08:12:26;;;;;;;5.33;4.77;;;20.10;94.40;;;;;;5057890;28;20519;-63
2022/11/07 08:14:53;;;;;;;4.20;4.00;;;20.10;94.00;;;;;;5060891;28;20692;-62
2022/11/07 08:17:21;;;;;;;3.90;3.70;;;20.10;93.90;;;;;;5055571;28;20532;-62
2022/11/07 08:19:48;;;;;;;4.13;3.83;;;20.10;93.90;;;;;;5054519;28;20877;-63
2022/11/07 08:22:15;;;;;;;5.10;4.60;;;20.10;93.80;;;;;;5055990;28;20556;-63
2022/11/07 08:24:42;;;;;;;4.77;4.57;;;20.10;93.80;;;;;;5054672;28;20920;-62
2022/11/07 08:27:09;;;;;;;5.80;5.33;;;20.10;93.80;;;;;;5059751;28;20448;-62
2022/11/07 08:29:36;;;;;;;3.80;3.70;;;20.10;93.70;;;;;;5054922;28;20450;-62
2022/11/07 08:32:03;;;;;;;4.30;4.20;;;20.10;93.70;;;;;;5053845;28;20563;-63
2022/11/07 08:34:31;;;;;;;4.60;4.40;;;20.10;93.70;;;;;;5055530;28;20509;-63
2022/11/07 08:36:58;;;;;;;4.23;4.03;;;20.10;93.70;;;;;;5057669;28;20884;-63
2022/11/07 08:39:24;;;;;;;4.57;4.27;;;20.10;93.60;;;;;;5056611;28;20535;-63
2022/11/07 08:41:51;;;;;;;4.47;4.13;;;20.00;93.60;;;;;;5054814;28;20558;-62
2022/11/07 08:44:18;;;;;;;3.67;3.47;;;20.10;93.60;;;;;;5053919;28;20575;-62
2022/11/07 08:46:45;;;;;;;4.00;3.80;;;20.00;93.50;;;;;;5054860;28;20547;-63
2022/11/07 08:49:12;;;;;;;3.50;3.40;;;20.00;93.60;;;;;;5055342;28;20539;-62
2022/11/07 08:51:40;;;;;;;3.70;3.67;;;20.00;93.50;;;;;;5054681;28;20882;-62
2022/11/07 08:54:07;;;;;;;3.97;3.70;;;20.00;93.50;;;;;;5060293;28;20436;-62
2022/11/07 08:56:35;;;;;;;3.73;3.63;;;20.00;93.50;;;;;;5067245;28;20448;-63
2022/11/07 08:59:02;;;;;;;3.63;3.53;;;20.00;93.50;;;;;;5070379;28;20444;-63
2022/11/07 09:01:29;;;;;;;4.37;4.17;;;20.00;93.50;;;;;;5069373;28;20522;-61
2022/11/07 09:03:56;;;;;;;4.43;4.23;;;20.00;93.50;;;;;;5068745;28;20476;-62
2022/11/07 09:06:23;;;;;;;3.83;3.73;;;20.00;93.50;;;;;;5066327;28;20464;-61
2022/11/07 09:08:51;;;;;;;3.80;3.70;;;20.10;93.60;;;;;;5064869;28;20480;-62
2022/11/07 09:11:18;;;;;;;3.93;3.63;;;20.10;93.60;;;;;;5068087;28;20475;-63
2022/11/07 09:13:46;;;;;;;3.83;3.63;;;20.10;93.60;;;;;;5063892;28;20525;-62
2022/11/07 09:16:16;;;;;;;4.10;3.90;;;20.10;93.90;;;;;;5060103;28;20447;-62
2022/11/07 09:18:44;;;;;;;3.60;3.50;;;20.10;93.50;;;;;;5054772;28;20443;-63
2022/11/07 09:21:11;;;;;;;3.70;3.50;;;20.10;93.50;;;;;;5058647;28;20448;-63
2022/11/07 09:23:38;;;;;;;3.50;3.40;;;20.10;93.50;;;;;;5059396;28;20546;-62
2022/11/07 09:26:07;;;;;;;3.60;3.50;;;20.10;93.40;;;;;;5065226;28;20462;-63
2022/11/07 09:28:35;;;;;;;3.63;3.53;;;20.10;93.40;;;;;;5063080;28;20477;-62
2022/11/07 09:31:03;;;;;;;3.50;3.40;;;20.10;93.40;;;;;;5052959;28;20488;-62
2022/11/07 09:33:31;;;;;;;3.83;3.73;;;20.20;93.40;;;;;;5057254;28;20472;-62
2022/11/07 09:35:59;;;;;;;3.73;3.63;;;20.10;93.30;;;;;;5060137;28;20862;-63
2022/11/07 09:38:26;;;;;;;4.07;3.97;;;20.10;93.30;;;;;;5058734;28;20534;-63
2022/11/07 09:41:03;;;;;;;3.50;3.40;;;20.10;93.60;;;;;;5060650;28;20530;-62
2022/11/07 09:43:58;;;;;;;3.73;3.43;;;20.20;93.30;;;;;;5061382;28;20496;-62
2022/11/07 09:46:36;;;;;;;3.90;3.80;;;20.10;93.20;;;;;;5068126;28;20475;-62
2022/11/07 09:49:13;;;;;;;3.93;3.73;;;20.20;93.20;;;;;;5065641;28;20447;-63
2022/11/07 09:51:44;;;;;;;3.47;3.37;;;20.20;93.10;;;;;;5067956;28;20440;-63
2022/11/07 09:54:14;;;;;;;3.50;3.40;;;20.20;93.10;;;;;;5065420;28;20458;-63
2022/11/07 09:56:43;;;;;;;4.73;4.43;;;20.20;93.30;;;;;;5066474;28;20515;-62
2022/11/07 09:59:20;;;;;;;3.37;3.30;;;20.20;93.00;;;;;;5068037;28;20471;-63
2022/11/07 10:01:47;;;;;;;3.70;3.60;;;20.20;92.90;;;;;;5066638;28;20464;-64
2022/11/07 10:04:16;;;;;;;3.40;3.40;;;20.20;92.90;;;;;;5069399;28;20504;-62
2022/11/07 10:06:49;;;;;;;3.47;3.37;;;20.20;92.90;;;;;;5071061;28;20490;-62
2022/11/07 10:09:22;;;;;;;3.97;3.87;;;20.20;92.80;;;;;;5072496;28;20440;-63
2022/11/07 10:11:57;;;;;;;3.70;3.60;;;20.20;92.80;;;;;;5070179;28;20467;-61
2022/11/07 10:14:37;;;;;;;3.70;3.60;;;20.20;92.80;;;;;;5064084;28;20464;-64
2022/11/07 10:17:16;;;;;;;4.03;3.93;;;20.20;92.70;;;;;;5068814;28;20448;-64
2022/11/07 10:20:02;;;;;;;3.80;3.70;;;20.20;92.70;;;;;;5070626;28;20444;-63
2022/11/07 10:22:38;;;;;;;3.40;3.40;;;20.20;92.70;;;;;;5068656;28;20494;-63
2022/11/07 10:25:19;;;;;;;3.37;3.30;;;20.20;92.60;;;;;;5063008;28;20778;-57
2022/11/07 10:27:50;;;;;;;3.87;3.70;;;20.10;92.60;;;;;;5054672;28;20443;-58
2022/11/07 10:30:20;;;;;;;3.43;3.33;;;20.20;92.70;;;;;;5054457;28;20452;-55
2022/11/07 10:32:57;;;;;;;3.70;3.60;;;20.10;92.60;;;;;;5054342;28;20508;-59
2022/11/07 10:35:29;;;;;;;3.47;3.33;;;20.20;92.70;;;;;;5054529;28;20450;-55
2022/11/07 10:37:57;;;;;;;3.30;3.20;;;20.10;92.60;;;;;;5054573;28;20452;-57
2022/11/07 10:40:32;;;;;;;3.73;3.67;;;20.10;92.70;;;;;;5054130;28;20440;-58
2022/11/07 10:43:01;;;;;;;4.10;4.00;;;20.10;92.60;;;;;;5054172;28;20463;-57
2022/11/07 10:45:29;;;;;;;3.30;3.20;;;20.10;92.70;;;;;;5054009;28;20572;-60
2022/11/07 10:47:59;;;;;;;3.30;3.20;;;20.10;92.60;;;;;;5053900;28;20444;-57
2022/11/07 10:50:26;;;;;;;3.43;3.33;;;20.10;92.70;;;;;;5054235;28;20878;-59
2022/11/07 10:52:54;;;;;;;3.10;3.10;;;20.10;92.70;;;;;;5054601;28;20566;-56
2022/11/07 10:55:22;;;;;;;3.63;3.53;;;20.10;92.70;;;;;;5054099;28;20436;-58
2022/11/07 10:57:54;;;;;;;3.37;3.30;;;20.10;92.70;;;;;;5054048;28;20444;-58
2022/11/07 11:00:23;;;;;;;4.03;3.83;;;20.10;92.60;;;;;;5053882;28;20459;-60
2022/11/07 11:02:53;;;;;;;3.80;3.67;;;20.10;92.60;;;;;;5053862;28;20521;-60
2022/11/07 11:05:23;;;;;;;3.83;3.63;;;20.10;92.60;;;;;;5053845;28;20555;-54
2022/11/07 11:07:51;;;;;;;3.30;3.30;;;20.20;92.70;;;;;;5054004;28;20487;-58
2022/11/07 11:10:20;;;;;;;4.03;3.93;;;20.20;92.70;;;;;;5053538;28;20970;-60
2022/11/07 11:12:48;;;;;;;3.37;3.37;;;20.10;92.60;;;;;;5053721;28;20825;-53
2022/11/07 11:15:18;;;;;;;3.90;3.80;;;20.10;92.70;;;;;;5053910;28;20885;-57
2022/11/07 11:17:46;;;;;;;3.87;3.70;;;20.20;92.80;;;;;;5053604;28;20791;-59
2022/11/07 11:20:31;;;;;;;3.97;3.77;;;20.20;92.80;;;;;;5053485;28;20527;-61
2022/11/07 11:22:59;;;;;;;3.70;3.60;;;20.20;92.80;;;;;;5053613;28;20543;-57
2022/11/07 11:25:26;;;;;;;3.70;3.60;;;20.20;92.80;;;;;;5053494;28;20486;-54
2022/11/07 11:27:58;;;;;;;3.90;3.70;;;20.20;92.80;;;;;;5053571;28;20941;-60
2022/11/07 11:30:25;;;;;;;4.30;4.20;;;20.20;92.70;;;;;;5053338;28;20440;-58
2022/11/07 11:33:00;;;;;;;3.50;3.40;;;20.20;92.70;;;;;;5053209;28;20476;-58
2022/11/07 11:35:37;;;;;;;4.40;4.13;;;20.20;92.70;;;;;;5053452;28;20446;-61
2022/11/07 11:38:11;;;;;;;3.70;3.60;;;20.20;92.70;;;;;;5053329;28;21006;-55
2022/11/07 11:40:42;;;;;;;3.63;3.53;;;20.20;92.60;;;;;;5053067;28;20850;-58
2022/11/07 11:43:19;;;;;;;3.87;3.77;;;20.30;92.60;;;;;;5053295;28;20550;-54
2022/11/07 11:45:57;;;;;;;3.87;3.77;;;20.30;93.00;;;;;;5053003;28;20570;-54
2022/11/07 11:48:25;;;;;;;3.30;3.20;;;20.30;92.60;;;;;;5053112;28;20517;-53
2022/11/07 11:50:59;;;;;;;3.63;3.63;;;20.30;92.60;;;;;;5052987;28;20440;-52
2022/11/07 11:53:28;;;;;;;3.63;3.50;;;20.30;92.60;;;;;;5052925;28;20495;-55
2022/11/07 11:56:02;;;;;;;3.77;3.67;;;20.30;92.50;;;;;;5052994;28;20447;-57
2022/11/07 11:58:42;;;;;;;4.03;3.93;;;20.30;92.80;;;;;;5051903;28;20444;-58
2022/11/07 12:01:19;;;;;;;3.83;3.73;;;20.30;92.40;;;;;;5052669;28;20448;-56
2022/11/07 12:04:16;;;;;;;4.57;4.47;;;20.30;92.40;;;;;;5052726;28;20534;-54
2022/11/07 12:06:46;;;;;;;3.90;3.80;;;20.30;92.30;;;;;;5030940;28;20483;-53
2022/11/07 12:09:31;;;;;;;3.80;3.70;;;20.30;92.30;;;;;;5052645;28;20447;-54
2022/11/07 12:12:06;;;;;;;3.90;3.80;;;20.30;92.30;;;;;;5052481;28;20468;-56
2022/11/07 12:15:06;;;;;;;3.53;3.43;;;20.30;92.20;;;;;;5052614;28;20996;-57
2022/11/07 12:17:41;;;;;;;3.97;3.87;;;20.30;92.20;;;;;;5048932;28;20467;-57
2022/11/07 12:20:18;;;;;;;3.70;3.70;;;20.30;92.20;;;;;;5052454;28;20878;-57
2022/11/07 12:22:58;;;;;;;3.47;3.47;;;20.30;92.20;;;;;;5052373;28;20842;-55
2022/11/07 12:25:30;;;;;;;3.40;3.40;;;20.30;92.10;;;;;;5052358;28;20480;-51
2022/11/07 12:28:07;;;;;;;3.43;3.33;;;20.30;92.10;;;;;;5052455;28;20440;-53
2022/11/07 12:30:44;;;;;;;3.23;3.13;;;20.30;92.30;;;;;;5052177;28;20956;-60
2022/11/07 12:33:21;;;;;;;3.00;3.00;;;20.30;92.10;;;;;;5052443;28;20904;-61
2022/11/07 12:35:53;;;;;;;3.80;3.70;;;20.30;92.10;;;;;;5052562;28;20530;-56
2022/11/07 12:39:02;;;;;;;3.83;3.73;;;20.30;92.10;;;;;;5052196;28;20455;-56
2022/11/07 12:41:39;;;;;;;4.17;4.03;;;20.30;92.10;;;;;;5031906;28;20854;-54
2022/11/07 12:44:25;;;;;;;3.60;3.50;;;20.30;92.10;;;;;;5052040;28;20898;-57
2022/11/07 12:46:55;;;;;;;3.93;3.63;;;20.30;92.10;;;;;;5052125;28;20909;-58
2022/11/07 12:49:37;;;;;;;3.70;3.63;;;20.30;92.10;;;;;;5052000;28;20543;-53
2022/11/07 12:52:14;;;;;;;3.60;3.50;;;20.30;92.10;;;;;;5051845;28;20495;-51
2022/11/07 12:54:50;;;;;;;3.53;3.47;;;20.30;92.10;;;;;;5051966;28;20450;-58
2022/11/07 12:57:20;;;;;;;3.67;3.67;;;20.30;92.10;;;;;;5051877;28;20450;-56
2022/11/07 12:59:52;;;;;;;4.30;4.10;;;20.30;92.10;;;;;;5051711;28;20539;-53
2022/11/07 13:02:30;;;;;;;3.57;3.57;;;20.30;92.00;;;;;;5051648;28;20559;-60
2022/11/07 13:05:05;;;;;;;3.60;3.50;;;20.30;92.00;;;;;;5051720;28;20479;-58
2022/11/07 13:07:40;;;;;;;3.70;3.50;;;20.30;92.00;;;;;;5051792;28;20809;-56
2022/11/07 13:10:15;;;;;;;3.33;3.33;;;20.30;92.10;;;;;;5051290;28;20451;-54